Monday, December 22, 2014
11:18 UTC
  |  Log In   |  Register Free
Airport Search:

Talladega Municipal Airport
(KASN)

Talladega Municipal Airport Diagram
No Airport Diagram Available

FAA data valid effective November 13, 2014 - January 08, 2015 (unless otherwise noted).

 
 
 
 
 
 
 
 
 
 
 
 
 
 

Current Aviation Weather for Talladega Municipal Airport (KASN)

The most recent METAR observation for KASN was updated at: 2111
METAR Summary (Translated METAR)
KASN
182055Z AUTO 00000KT 10SM BKN050 OVC095 09/01 A3016 RMK AO2 T00940013
KANB
182053Z AUTO 24005KT 10SM BKN050 OVC095 09/01 A3015 RMK AO2 SLP217 T00940011 56012
(9.7 nm NE from KASN)
KGAD
182055Z 00000KT 10SM OVC050 09/00 A3015 RMK AO1 57010
(24.3 nm NW from KASN)
TAF Summary (Translated TAF)
KASN
(9.7 nm SW from KANB)
220534Z 2206/2306 06006KT P6SM OVC015 FM220830 06006KT 6SM BR OVC009
KANB
220534Z 2206/2306 06006KT P6SM OVC012 FM220730 06006KT 6SM BR OVC009
  Airport Weather Conditions for KASN

 Current Weather at ASN
51° F
Overcast
East winds at 4.6 mph
ASN NOAA Radar

Pressure: 29.99 in
Humidity: 87%
Wind: East at 4.6 MPH (4 KT)
Dew Point: 46.8°F
Visibility: 10.00 mi


Airport Weather Forecast for KASN

Translated METAR and TAF for KANB
Translated METAR for KANB (1119 UTC 22 December 2014)
found at http://aviationweather.gov/adds/metars/
 
METAR text: KANB 221053Z AUTO 10007KT 10SM OVC008 09/08 A3000 RMK AO2 SLP161 T00940078
Conditions at: KANB (ANNISTON , AL, US) observed 1053 UTC 22 December 2014
Temperature: 9.4°C (49°F)
Dewpoint: 7.8°C (46°F) [RH = 90%]
Pressure (altimeter): 30.00 inches Hg (1016.0 mb)
[Sea-level pressure: 1016.1 mb]
Winds: from the E (100 degrees) at 8 MPH (7 knots; 3.6 m/s)
Visibility: 10 or more miles (16+ km)
Ceiling: 800 feet AGL
Clouds: overcast cloud deck at 800 feet AGL
Weather: automated observation with no human augmentation;
there may or may not be significant weather present at this time
Translated TAF for KANB
Forecast for: KANB (ANNISTON , AL, US)
TAF Text: KANB 220534Z 2206/2306 06006KT P6SM OVC012
Forecast period: 0600 to 0730 UTC 22 December 2014
Forecast type: FROM: standard forecast or significant change
Winds: from the ENE (60 degrees) at 7 MPH (6 knots; 3.1 m/s)
Visibility: 6 or more miles (10+ km)
Ceiling: 1200 feet AGL
Clouds: overcast cloud deck at 1200 feet AGL
Weather: no significant weather forecast for this period
TAF Text: FM220730 06006KT 6SM BR OVC009
Forecast period: 0730 UTC 22 December 2014 to 0600 UTC 23 December 2014
Forecast type: FROM: standard forecast or significant change
Winds: from the ENE (60 degrees) at 7 MPH (6 knots; 3.1 m/s)
Visibility: 6 miles (10 km)
Ceiling: 900 feet AGL
Clouds: overcast cloud deck at 900 feet AGL
Weather: BR  (mist)

Find All Airport Services Find A Hotel Find A Rental Car Find A Golf Course Find A Restaurant $100 Hamburger



FBO's on the Field
FBO Company Facility Photos Services Transportation Aviation Fuel Prices: Prices include tax
Catering Weather Repair Courtesy Rental Type 100LL JetA JetA+ MOGAS 8087
 
Talladega Municipal

This FBO has not yet been rated
FS:Phillips 66
Last Updated: Nov-14
Login to update fuel prices
SS:
Contact Talladega MunicipalMore FBO Information
 
Add another FBO Facility Photos Catering Weather Repair Courtesy Rental Type 100LL JetA JetA+ MOGAS 8087
Services Transportation Aviation Fuel Prices: Prices include tax


model-print
model-print
model-print
model-print